createdAt,value
2018-07-03T10:16:25.891Z,54.00
2018-07-03T10:18:57.774Z,56.10
2018-07-03T10:21:30.489Z,55.40
2018-07-03T10:24:03.321Z,53.40
2018-07-03T10:26:35.245Z,55.80
2018-07-03T10:29:07.765Z,55.30
2018-07-03T10:31:40.522Z,55.30
2018-07-03T10:34:13.409Z,52.70
2018-07-03T10:36:45.393Z,56.20
2018-07-03T10:39:17.897Z,57.20
2018-07-03T10:41:51.421Z,53.70
2018-07-03T10:44:24.176Z,53.60
2018-07-03T10:46:57.873Z,55.40
2018-07-03T10:49:30.999Z,52.10
2018-07-03T10:52:02.021Z,55.30
2018-07-03T10:54:33.687Z,56.50
2018-07-03T10:57:06.403Z,54.70
2018-07-03T10:59:38.625Z,53.50
2018-07-03T11:02:10.424Z,53.00
2018-07-03T11:04:42.635Z,52.60
2018-07-03T11:07:15.857Z,54.80
2018-07-03T11:09:48.487Z,54.20
2018-07-03T11:12:20.765Z,53.90
2018-07-03T11:14:52.874Z,57.70
2018-07-03T11:17:24.762Z,54.30
2018-07-03T11:19:57.598Z,54.30
2018-07-03T11:22:30.104Z,53.00
2018-07-03T11:25:02.232Z,52.30
2018-07-03T11:27:35.939Z,52.70
2018-07-03T11:30:08.951Z,54.40
2018-07-03T11:32:40.759Z,49.60
2018-07-03T11:35:13.470Z,52.70
2018-07-03T11:37:46.775Z,54.30
2018-07-03T11:40:18.879Z,53.00
2018-07-03T11:42:50.088Z,49.80
2018-07-03T11:45:21.555Z,50.70
2018-07-03T11:47:54.862Z,49.60
2018-07-03T11:50:26.785Z,50.40
2018-07-03T11:52:59.888Z,48.30
2018-07-03T11:55:31.927Z,48.20
2018-07-03T11:58:04.978Z,47.20
2018-07-03T12:00:37.187Z,52.20
2018-07-03T12:05:39.880Z,49.30
2018-07-03T12:08:12.509Z,50.00
2018-07-03T12:10:44.223Z,49.00
2018-07-03T12:13:16.285Z,48.30
2018-07-03T12:15:48.297Z,50.80
2018-07-03T12:18:25.599Z,48.60
2018-07-03T12:20:59.590Z,51.90
2018-07-03T12:23:32.395Z,48.60
2018-07-03T12:26:05.172Z,48.00
2018-07-03T12:28:37.187Z,47.70
2018-07-03T12:31:09.794Z,47.80
2018-07-03T12:33:42.490Z,48.20
2018-07-03T12:36:14.474Z,51.50
2018-07-03T12:38:47.949Z,48.50
2018-07-03T12:41:20.785Z,48.20
2018-07-03T12:43:53.745Z,47.40
2018-07-03T12:46:25.196Z,48.20
2018-07-03T12:48:57.177Z,49.30
2018-07-03T12:51:29.965Z,50.30
2018-07-03T12:54:02.803Z,46.90
2018-07-03T12:56:34.861Z,48.40
2018-07-03T12:59:09.737Z,51.70
2018-07-03T13:01:41.565Z,48.80
2018-07-03T13:04:14.559Z,49.70
2018-07-03T13:06:46.895Z,50.20
2018-07-03T13:09:19.545Z,49.90
2018-07-03T13:11:51.962Z,50.40
2018-07-03T13:14:23.951Z,50.00
2018-07-03T13:16:56.227Z,49.10
2018-07-03T13:19:28.468Z,47.60
2018-07-03T13:22:01.441Z,47.70
2018-07-03T13:24:32.445Z,47.10
2018-07-03T13:27:06.229Z,47.60
2018-07-03T13:29:39.321Z,48.10
2018-07-03T13:32:10.814Z,48.20
2018-07-03T13:34:43.663Z,48.90
2018-07-03T13:37:15.843Z,48.60
2018-07-03T13:39:48.331Z,49.20
2018-07-03T13:42:21.128Z,49.80
2018-07-03T13:44:52.945Z,48.90
2018-07-03T13:47:24.196Z,48.20
2018-07-03T13:49:55.955Z,49.20
2018-07-03T13:52:28.035Z,48.40
2018-07-03T13:55:00.126Z,48.70
2018-07-03T13:57:33.349Z,47.80
2018-07-03T14:00:07.043Z,47.10
2018-07-03T14:02:38.758Z,47.80
2018-07-03T14:05:11.527Z,48.30
2018-07-03T14:07:43.945Z,48.10
2018-07-03T14:10:15.257Z,46.30
2018-07-03T14:12:47.799Z,46.90
2018-07-03T14:15:19.081Z,47.10
2018-07-03T14:17:51.907Z,46.80
2018-07-03T14:20:24.977Z,47.90
2018-07-03T14:22:58.028Z,48.10
2018-07-03T14:25:31.535Z,46.50
2018-07-03T14:28:04.904Z,47.70
2018-07-03T14:30:37.041Z,48.20
2018-07-03T14:33:09.031Z,48.50
2018-07-03T14:35:42.379Z,48.00
2018-07-03T14:38:14.289Z,48.30
2018-07-03T14:40:46.383Z,49.70
2018-07-03T14:43:18.523Z,48.50
2018-07-03T14:45:49.875Z,50.20
2018-07-03T14:48:21.296Z,48.90
2018-07-03T14:50:54.120Z,48.40
2018-07-03T14:53:26.458Z,48.50
2018-07-03T14:55:59.212Z,48.90
2018-07-03T14:58:31.706Z,49.30
2018-07-03T15:01:03.943Z,49.10
2018-07-03T15:03:35.890Z,48.70
2018-07-03T15:06:08.349Z,49.30
2018-07-03T15:08:40.507Z,48.30
2018-07-03T15:11:13.212Z,49.60
2018-07-03T15:13:44.954Z,48.30
2018-07-03T15:16:17.163Z,49.40
2018-07-03T15:18:54.360Z,49.90
2018-07-03T15:21:33.182Z,48.60
2018-07-03T15:24:15.928Z,49.10
2018-07-03T15:26:54.155Z,48.40
2018-07-03T15:29:28.179Z,48.90
2018-07-03T15:32:03.438Z,48.50
2018-07-03T15:34:36.048Z,48.30
2018-07-03T15:37:08.370Z,49.30
2018-07-03T15:39:41.290Z,50.30
2018-07-03T15:42:22.520Z,49.40
2018-07-03T15:45:07.050Z,49.70
2018-07-03T15:47:39.530Z,48.40
2018-07-03T15:50:15.787Z,48.40
2018-07-03T15:52:53.379Z,49.40
2018-07-03T15:55:25.568Z,48.20
2018-07-03T15:57:59.878Z,50.80
2018-07-03T16:00:32.210Z,50.90
2018-07-03T16:03:15.258Z,50.00
2018-07-03T16:06:02.260Z,49.40
2018-07-03T16:09:15.264Z,49.80
2018-07-03T16:24:48.287Z,50.20
2018-07-03T16:27:20.312Z,49.80
2018-07-03T16:29:52.884Z,51.20
2018-07-03T16:32:25.711Z,51.00
2018-07-03T16:34:58.316Z,50.50
2018-07-03T16:37:30.109Z,51.20
2018-07-03T16:40:03.598Z,49.70
2018-07-03T16:42:36.063Z,50.50
2018-07-03T16:45:09.345Z,49.40
2018-07-03T16:47:43.632Z,48.80
2018-07-03T16:50:15.115Z,49.10
2018-07-03T16:52:47.936Z,51.10
2018-07-03T16:55:20.827Z,51.10
2018-07-03T16:57:53.566Z,49.80
2018-07-03T17:00:28.874Z,49.30
2018-07-03T17:03:00.808Z,48.80
2018-07-03T17:05:33.435Z,51.30
2018-07-03T17:08:06.429Z,49.70
2018-07-03T17:10:38.784Z,50.30
2018-07-03T17:13:10.699Z,50.80
2018-07-03T17:15:43.486Z,50.70
2018-07-03T17:18:15.338Z,51.10
2018-07-03T17:20:47.579Z,51.00
2018-07-03T17:23:20.240Z,50.30
2018-07-03T17:25:52.912Z,51.00
2018-07-03T17:28:25.508Z,52.30
2018-07-03T17:30:57.852Z,53.00
2018-07-03T17:33:30.831Z,53.10
2018-07-03T17:36:03.552Z,53.50
2018-07-03T17:38:35.773Z,54.00
2018-07-03T17:41:19.026Z,53.60
2018-07-03T17:44:05.480Z,54.20
2018-07-03T17:46:37.896Z,54.90
2018-07-03T17:49:09.973Z,55.90
2018-07-03T17:51:43.353Z,56.70
2018-07-03T17:54:17.079Z,56.70
2018-07-03T17:56:51.668Z,59.70
2018-07-03T17:59:25.049Z,60.40
2018-07-03T18:01:58.620Z,60.30
2018-07-03T18:04:32.988Z,61.00
2018-07-03T18:07:06.906Z,61.00
2018-07-03T18:09:39.140Z,58.80
2018-07-03T18:12:12.075Z,58.70
2018-07-03T18:14:45.306Z,60.70
2018-07-03T18:17:17.622Z,62.20
2018-07-03T18:19:51.244Z,63.20
2018-07-03T18:22:23.626Z,62.00
2018-07-03T18:24:57.110Z,62.60
2018-07-03T18:27:30.754Z,65.10
2018-07-03T18:30:03.884Z,69.00
2018-07-03T18:32:35.262Z,70.70
2018-07-03T18:35:07.648Z,73.40
2018-07-03T18:37:40.078Z,79.40
2018-07-03T18:40:11.447Z,77.90
2018-07-03T18:42:43.804Z,79.60
2018-07-03T18:45:16.695Z,80.40
2018-07-03T18:47:48.532Z,88.20
2018-07-03T18:50:20.571Z,92.20
2018-07-03T18:52:53.179Z,97.70
2018-07-03T18:55:25.498Z,99.90
2018-07-03T18:57:57.309Z,99.90
2018-07-03T19:00:29.672Z,99.90
2018-07-03T19:03:01.900Z,99.90
2018-07-03T19:05:34.566Z,99.90
2018-07-03T19:08:06.637Z,99.90
2018-07-03T19:10:38.072Z,99.90
2018-07-03T19:13:09.594Z,99.90
2018-07-03T19:15:41.057Z,99.90
2018-07-03T19:18:13.703Z,99.90
2018-07-03T19:20:45.262Z,99.90
2018-07-03T19:23:16.880Z,99.90
2018-07-03T19:25:47.774Z,99.90
2018-07-03T19:28:19.468Z,99.90
2018-07-03T19:30:50.586Z,99.90
2018-07-03T19:33:23.276Z,99.90
2018-07-03T19:35:55.611Z,99.90
2018-07-03T19:38:27.184Z,99.90
2018-07-03T19:41:00.013Z,99.90
2018-07-03T19:43:35.581Z,99.90
2018-07-03T19:46:07.332Z,99.90
2018-07-03T19:51:09.952Z,99.90
2018-07-03T19:53:41.652Z,99.90
2018-07-03T19:56:13.358Z,99.90
2018-07-03T19:58:46.475Z,99.90
2018-07-03T20:01:18.664Z,99.90
2018-07-03T20:03:51.594Z,99.90
2018-07-03T20:06:22.438Z,99.90
2018-07-03T20:08:54.235Z,99.90
2018-07-03T20:11:29.275Z,99.90
2018-07-03T20:14:01.485Z,99.90
2018-07-03T20:16:32.712Z,99.90
2018-07-03T20:19:05.860Z,99.90
2018-07-03T20:24:09.152Z,99.90
2018-07-03T20:26:41.272Z,99.90
2018-07-03T20:29:13.894Z,99.90
2018-07-03T20:31:46.538Z,99.90
2018-07-03T20:34:18.168Z,99.90
2018-07-03T20:36:49.686Z,99.90
2018-07-03T20:39:22.759Z,99.90
2018-07-03T20:41:54.591Z,99.90
2018-07-03T20:44:26.075Z,99.90
2018-07-03T20:46:57.706Z,99.90
2018-07-03T20:49:29.194Z,99.90
2018-07-03T20:52:01.386Z,99.90
2018-07-03T20:54:32.716Z,99.90
2018-07-03T20:57:04.251Z,99.90
2018-07-03T20:59:36.622Z,99.90
2018-07-03T21:02:08.704Z,99.90
2018-07-03T21:04:40.475Z,99.90
2018-07-03T21:07:12.350Z,99.90
2018-07-03T21:09:44.721Z,99.90
2018-07-03T21:12:16.961Z,99.90
2018-07-03T21:14:48.672Z,99.90
2018-07-03T21:17:20.958Z,99.90
2018-07-03T21:19:53.164Z,99.90
2018-07-03T21:22:24.642Z,99.90
2018-07-03T21:24:56.378Z,99.90
2018-07-03T21:27:28.504Z,99.90
2018-07-03T21:30:01.189Z,99.90
2018-07-03T21:32:32.699Z,99.90
2018-07-03T21:35:04.401Z,99.90
2018-07-03T21:37:37.064Z,99.90
2018-07-03T21:40:09.687Z,99.90
2018-07-03T21:42:42.752Z,99.90
2018-07-03T21:45:14.347Z,99.90
2018-07-03T21:47:46.585Z,99.90
2018-07-03T21:50:18.208Z,99.90
2018-07-03T21:52:49.542Z,99.90
2018-07-03T21:55:21.349Z,99.90
2018-07-03T21:57:53.629Z,99.90
2018-07-03T22:00:31.238Z,99.90
2018-07-03T22:03:02.487Z,99.90
2018-07-03T22:05:35.381Z,99.90
2018-07-03T22:08:09.123Z,99.90
2018-07-03T22:10:39.815Z,99.90
2018-07-03T22:13:10.900Z,99.90
2018-07-03T22:15:43.461Z,99.90
2018-07-03T22:18:14.872Z,99.90
2018-07-03T22:20:46.210Z,99.90
2018-07-03T22:23:18.593Z,99.90
2018-07-03T22:25:50.787Z,99.90
2018-07-03T22:28:22.088Z,99.90
2018-07-03T22:30:53.621Z,99.90
2018-07-03T22:33:25.554Z,99.90
2018-07-03T22:35:57.362Z,99.90
2018-07-03T22:38:28.834Z,99.90
2018-07-03T22:41:00.286Z,99.90
2018-07-03T22:43:32.413Z,99.90
2018-07-03T22:46:03.942Z,99.90
2018-07-03T22:48:35.116Z,99.90
2018-07-03T22:51:06.373Z,99.90
2018-07-03T22:53:38.383Z,99.90
2018-07-03T22:56:22.233Z,99.90
2018-07-03T23:01:26.260Z,99.90
2018-07-03T23:03:58.210Z,99.90
2018-07-03T23:06:29.743Z,99.90
2018-07-03T23:09:00.979Z,99.90
2018-07-03T23:11:33.227Z,99.90
2018-07-03T23:14:05.730Z,99.90
2018-07-03T23:16:36.893Z,99.90
2018-07-03T23:19:08.181Z,99.90
2018-07-03T23:21:40.304Z,99.90
2018-07-03T23:24:13.305Z,99.90
2018-07-03T23:26:44.849Z,99.90
2018-07-03T23:29:16.851Z,99.90
2018-07-03T23:31:49.434Z,99.90
2018-07-03T23:34:21.130Z,99.90
2018-07-03T23:36:52.354Z,99.90
2018-07-03T23:39:24.370Z,99.90
2018-07-03T23:44:27.209Z,99.90
2018-07-03T23:47:10.063Z,99.90
2018-07-03T23:49:58.673Z,99.90
2018-07-03T23:52:47.080Z,99.90
2018-07-03T23:55:35.367Z,99.90
2018-07-03T23:58:23.864Z,99.90
